Time;durP1;ratioP1;P1;durP2;ratioP2;P2;SDS_P1;SDS_P2;PMS_P1;PMS_P2;Temp;Humidity;BMP_temperature;BMP_pressure;BME280_temperature;BME280_humidity;BME280_pressure;Samples;Min_cycle;Max_cycle;Signal;HPM_P1;HPM_P2
2022/08/08 00:00:44;;;;;;;1.85;1.83;;;23.30;99.90;;;;;;5096572;28;20545;-81
2022/08/08 00:03:21;;;;;;;1.77;1.67;;;23.30;99.90;;;;;;5114744;28;20015;-81
2022/08/08 00:06:01;;;;;;;1.92;1.83;;;23.40;99.90;;;;;;5114714;28;20027;-82
2022/08/08 00:08:49;;;;;;;2.88;1.90;;;23.40;99.90;;;;;;5114670;28;20027;-81
2022/08/08 00:11:38;;;;;;;2.15;1.95;;;23.30;99.90;;;;;;5096495;28;20031;-81
2022/08/08 00:14:27;;;;;;;1.83;1.73;;;23.30;99.90;;;;;;5114605;28;20034;-81
2022/08/08 00:17:18;;;;;;;4.00;1.90;;;23.20;99.90;;;;;;5081873;28;20126;-82
2022/08/08 00:19:49;;;;;;;1.88;1.77;;;23.10;99.90;;;;;;5114570;28;20059;-81
2022/08/08 00:22:39;;;;;;;1.70;1.70;;;23.10;99.90;;;;;;5096237;28;20057;-81
2022/08/08 00:25:16;;;;;;;1.52;1.42;;;23.10;99.90;;;;;;5113473;28;20023;-81
2022/08/08 00:27:44;;;;;;;1.90;1.80;;;23.10;99.90;;;;;;5092328;28;20028;-82
2022/08/08 00:30:12;;;;;;;1.75;1.65;;;23.10;99.90;;;;;;5093838;28;20065;-81
2022/08/08 00:32:56;;;;;;;2.47;1.77;;;23.10;99.90;;;;;;5075853;28;20081;-81
2022/08/08 00:35:33;;;;;;;1.80;1.70;;;23.10;99.90;;;;;;5075579;28;20477;-81
2022/08/08 00:38:37;;;;;;;2.25;1.58;;;23.00;99.90;;;;;;5093571;28;20373;-81
2022/08/08 00:41:32;;;;;;;1.83;1.73;;;23.00;99.90;;;;;;5082023;28;20031;-81
2022/08/08 00:44:30;;;;;;;2.38;2.10;;;23.00;99.90;;;;;;5095729;28;20027;-81
2022/08/08 00:47:14;;;;;;;1.70;1.60;;;23.00;99.90;;;;;;5114034;28;20499;-81
2022/08/08 00:50:04;;;;;;;1.55;1.55;;;23.00;99.90;;;;;;5114008;28;20367;-81
2022/08/08 00:52:48;;;;;;;2.28;1.80;;;23.00;99.90;;;;;;5095589;28;20114;-81
2022/08/08 00:55:42;;;;;;;1.70;1.60;;;23.00;99.90;;;;;;5095544;28;20023;-80
2022/08/08 00:58:34;;;;;;;1.92;1.85;;;22.90;99.90;;;;;;5088112;28;20038;-81
2022/08/08 01:01:05;;;;;;;2.10;2.00;;;22.90;99.90;;;;;;5075290;28;20035;-82
2022/08/08 01:04:12;;;;;;;2.17;2.00;;;22.90;99.90;;;;;;5075194;28;20032;-81
2022/08/08 01:07:00;;;;;;;2.63;2.13;;;22.90;99.90;;;;;;5093344;28;20024;-81
2022/08/08 01:09:47;;;;;;;2.10;2.00;;;22.90;99.90;;;;;;5075250;28;20079;-81
2022/08/08 01:12:51;;;;;;;2.10;1.90;;;22.90;99.90;;;;;;5075216;28;20572;-81
2022/08/08 01:15:42;;;;;;;2.10;2.00;;;23.00;99.90;;;;;;5093202;28;20036;-81
2022/08/08 01:18:14;;;;;;;2.22;1.80;;;22.90;99.90;;;;;;5075127;28;20055;-81
2022/08/08 01:21:07;;;;;;;1.88;1.77;;;22.90;99.90;;;;;;5075030;28;20046;-81
2022/08/08 01:23:36;;;;;;;1.95;1.85;;;22.90;99.90;;;;;;5074813;28;20028;-81
2022/08/08 01:26:05;;;;;;;2.10;2.00;;;22.90;99.90;;;;;;5075003;28;20032;-81
2022/08/08 01:28:52;;;;;;;1.77;1.67;;;22.80;99.90;;;;;;5093237;28;20483;-80
2022/08/08 01:31:50;;;;;;;2.13;1.98;;;22.70;99.90;;;;;;5074891;28;20378;-79
2022/08/08 01:35:02;;;;;;;2.55;1.85;;;22.60;99.90;;;;;;5037936;28;20057;-80
2022/08/08 01:37:30;;;;;;;2.10;1.90;;;22.60;99.90;;;;;;5079021;28;20024;-81
2022/08/08 01:40:41;;;;;;;2.10;2.00;;;22.60;99.90;;;;;;5078923;28;20137;-81
2022/08/08 01:43:31;;;;;;;2.03;1.92;;;22.50;99.90;;;;;;5078960;28;20032;-81
2022/08/08 01:46:24;;;;;;;1.95;1.85;;;22.60;99.90;;;;;;5078796;28;20126;-82
2022/08/08 01:48:59;;;;;;;2.15;2.05;;;22.60;99.90;;;;;;5097160;28;20032;-82
2022/08/08 01:51:50;;;;;;;2.00;1.90;;;22.60;99.90;;;;;;5078816;28;20028;-81
2022/08/08 01:54:50;;;;;;;1.92;1.83;;;22.60;99.90;;;;;;5097077;28;20017;-81
2022/08/08 01:57:37;;;;;;;3.42;2.08;;;22.60;99.90;;;;;;5078779;28;20024;-81
2022/08/08 02:00:12;;;;;;;2.75;1.90;;;22.60;99.90;;;;;;5078763;28;20027;-81
2022/08/08 02:02:58;;;;;;;1.77;1.67;;;22.50;99.90;;;;;;5096873;28;20034;-80
2022/08/08 02:05:44;;;;;;;2.10;2.00;;;22.50;99.90;;;;;;5078418;28;20032;-81
2022/08/08 02:08:31;;;;;;;1.95;1.85;;;22.40;99.90;;;;;;5095613;28;20019;-82
2022/08/08 02:11:01;;;;;;;2.10;2.00;;;22.50;99.90;;;;;;5077251;28;20124;-81
2022/08/08 02:13:35;;;;;;;7.82;2.35;;;22.40;99.90;;;;;;5077359;28;20081;-81
2022/08/08 02:16:12;;;;;;;2.08;1.98;;;22.40;99.90;;;;;;5095340;28;20074;-81
2022/08/08 02:19:10;;;;;;;1.92;1.83;;;22.40;99.90;;;;;;5077316;28;20028;-81
2022/08/08 02:25:01;;;;;;;1.95;1.80;;;22.30;99.90;;;;;;5075139;28;20031;-82
2022/08/08 02:28:11;;;;;;;2.05;1.95;;;22.40;99.90;;;;;;5058032;28;20051;-81
2022/08/08 02:31:24;;;;;;;2.95;2.20;;;22.30;99.90;;;;;;5076087;28;20074;-81
2022/08/08 02:34:09;;;;;;;3.45;2.25;;;22.30;99.90;;;;;;5089530;28;20040;-80
2022/08/08 02:36:50;;;;;;;2.30;1.85;;;22.40;99.90;;;;;;5116384;28;20440;-81
2022/08/08 02:39:27;;;;;;;1.80;1.70;;;22.40;99.90;;;;;;5097910;28;20044;-80
2022/08/08 02:42:14;;;;;;;2.30;2.20;;;22.40;99.90;;;;;;5098065;28;20093;-81
2022/08/08 02:44:59;;;;;;;2.22;2.13;;;22.40;99.90;;;;;;5116364;28;20030;-81
2022/08/08 02:47:45;;;;;;;2.28;2.08;;;22.40;99.90;;;;;;5097146;28;20026;-82
2022/08/08 02:50:23;;;;;;;2.40;2.20;;;22.50;99.90;;;;;;5116294;28;20016;-81
2022/08/08 02:53:03;;;;;;;2.85;2.15;;;22.60;99.90;;;;;;5098041;28;20480;-81
2022/08/08 02:55:41;;;;;;;4.13;2.38;;;22.50;99.90;;;;;;5097796;28;20477;-81
2022/08/08 02:58:10;;;;;;;1.80;1.70;;;22.50;99.90;;;;;;5097797;28;20032;-80
2022/08/08 03:01:03;;;;;;;2.03;1.92;;;22.50;99.90;;;;;;5097718;28;20035;-80
2022/08/08 03:04:06;;;;;;;3.38;1.85;;;22.50;99.90;;;;;;5115938;28;20024;-81
2022/08/08 03:07:15;;;;;;;2.53;2.33;;;22.50;99.90;;;;;;5097512;28;20034;-80
2022/08/08 03:10:08;;;;;;;2.30;2.20;;;22.50;99.90;;;;;;5055233;28;20119;-81
2022/08/08 03:13:08;;;;;;;1.88;1.77;;;22.50;99.90;;;;;;5095975;28;20049;-81
2022/08/08 03:16:15;;;;;;;2.10;2.00;;;22.40;99.90;;;;;;5096500;28;20031;-81
2022/08/08 03:18:58;;;;;;;1.98;1.88;;;22.40;99.90;;;;;;5097288;28;20096;-81
2022/08/08 03:21:23;;;;;;;4.03;2.00;;;22.40;99.90;;;;;;5081567;28;20038;-81
2022/08/08 03:23:49;;;;;;;2.20;1.98;;;22.40;99.90;;;;;;5097372;28;20032;-81
2022/08/08 03:26:18;;;;;;;3.15;2.13;;;22.30;99.90;;;;;;5097301;28;20489;-81
2022/08/08 03:28:53;;;;;;;3.67;2.15;;;22.30;99.90;;;;;;5084731;28;20035;-81
2022/08/08 03:34:12;;;;;;;2.33;2.22;;;22.40;99.90;;;;;;5095302;28;20089;-81
2022/08/08 03:36:42;;;;;;;2.90;2.03;;;22.40;99.90;;;;;;5076832;28;20456;-81
2022/08/08 03:39:11;;;;;;;2.30;2.20;;;22.40;99.90;;;;;;5076722;28;20048;-81
2022/08/08 03:41:37;;;;;;;2.15;2.05;;;22.40;99.90;;;;;;5076739;28;20028;-81
2022/08/08 03:44:03;;;;;;;2.60;2.40;;;22.50;99.90;;;;;;5076720;28;20024;-81
2022/08/08 03:46:29;;;;;;;3.08;2.38;;;22.50;99.90;;;;;;5076678;28;20035;-81
2022/08/08 03:48:56;;;;;;;2.45;2.25;;;22.50;99.90;;;;;;5076459;28;20012;-81
2022/08/08 03:51:23;;;;;;;2.22;2.13;;;22.50;99.90;;;;;;5094767;28;20078;-81
2022/08/08 03:53:53;;;;;;;2.72;2.00;;;22.40;99.90;;;;;;5076528;28;20027;-81
2022/08/08 03:56:20;;;;;;;2.78;1.98;;;22.50;99.90;;;;;;5076486;28;20051;-82
2022/08/08 03:58:51;;;;;;;2.13;2.03;;;22.50;99.90;;;;;;5107490;28;20089;-82
2022/08/08 04:01:18;;;;;;;2.50;2.40;;;22.50;99.90;;;;;;5096546;28;20111;-81
2022/08/08 04:03:46;;;;;;;3.97;2.20;;;22.50;99.90;;;;;;5114850;28;20112;-81
2022/08/08 04:06:13;;;;;;;2.40;2.20;;;22.50;99.90;;;;;;5114621;28;20049;-82
2022/08/08 04:08:39;;;;;;;2.22;2.13;;;22.40;99.90;;;;;;5114765;28;20048;-81
2022/08/08 04:11:05;;;;;;;2.88;2.33;;;22.40;99.90;;;;;;5096559;28;20625;-81
2022/08/08 04:13:31;;;;;;;2.00;1.90;;;22.50;99.90;;;;;;5096081;28;20020;-81
2022/08/08 04:15:57;;;;;;;2.17;2.00;;;22.50;99.90;;;;;;5114396;28;20069;-81
2022/08/08 04:18:23;;;;;;;2.47;2.20;;;22.50;99.90;;;;;;5096272;28;20077;-81
2022/08/08 04:20:49;;;;;;;2.28;2.17;;;22.60;99.90;;;;;;5095936;28;20123;-81
2022/08/08 04:23:15;;;;;;;2.78;2.58;;;22.60;99.90;;;;;;5114355;28;20087;-81
2022/08/08 04:25:41;;;;;;;4.00;2.35;;;22.60;99.90;;;;;;5095945;28;20427;-81
2022/08/08 04:28:07;;;;;;;2.63;2.42;;;22.70;99.90;;;;;;5095950;28;20452;-81
2022/08/08 04:30:34;;;;;;;2.42;2.33;;;22.70;99.90;;;;;;5113722;28;20031;-82
2022/08/08 04:33:00;;;;;;;2.25;2.15;;;22.70;99.90;;;;;;5096075;28;20035;-81
2022/08/08 04:35:26;;;;;;;2.38;2.28;;;22.70;99.90;;;;;;5113682;28;20077;-81
2022/08/08 04:37:53;;;;;;;3.70;2.20;;;22.80;99.90;;;;;;5095954;28;20027;-81
2022/08/08 04:40:19;;;;;;;2.05;1.95;;;22.80;99.90;;;;;;5095556;28;20386;-81
2022/08/08 04:42:46;;;;;;;2.20;2.10;;;22.80;99.90;;;;;;5113996;28;20023;-81
2022/08/08 04:45:13;;;;;;;2.40;2.30;;;22.80;99.90;;;;;;5114015;28;20020;-82
2022/08/08 04:47:38;;;;;;;6.35;2.58;;;22.70;99.90;;;;;;5113949;28;20016;-82
2022/08/08 04:50:05;;;;;;;2.60;2.25;;;22.80;99.90;;;;;;5095725;28;20023;-81
2022/08/08 04:52:31;;;;;;;2.28;2.08;;;22.80;99.90;;;;;;5074499;28;20020;-81
2022/08/08 04:54:57;;;;;;;2.45;2.35;;;22.80;99.90;;;;;;5093186;28;20504;-81
2022/08/08 04:57:22;;;;;;;3.30;2.58;;;22.80;99.90;;;;;;5056634;28;20343;-81
2022/08/08 04:59:48;;;;;;;2.60;2.40;;;22.90;99.90;;;;;;5081299;28;20020;-81
2022/08/08 05:02:14;;;;;;;2.22;2.13;;;22.90;99.90;;;;;;5093111;28;20043;-81
2022/08/08 05:04:41;;;;;;;2.53;2.42;;;22.90;99.90;;;;;;5093141;28;20074;-81
2022/08/08 05:07:07;;;;;;;2.40;2.30;;;23.00;99.90;;;;;;5075198;28;20588;-81
2022/08/08 05:09:33;;;;;;;3.85;2.13;;;23.10;99.90;;;;;;5075172;28;20051;-80
2022/08/08 05:12:00;;;;;;;2.45;2.35;;;23.20;99.90;;;;;;5092748;28;20027;-81
2022/08/08 05:14:29;;;;;;;2.70;2.50;;;23.20;99.90;;;;;;5093075;28;20113;-81
2022/08/08 05:16:55;;;;;;;2.13;2.03;;;23.30;99.90;;;;;;5075097;28;20089;-80
2022/08/08 05:19:21;;;;;;;2.30;2.20;;;23.40;99.90;;;;;;5093178;28;20024;-81
2022/08/08 05:21:48;;;;;;;2.50;2.40;;;23.40;99.90;;;;;;5074800;28;20054;-81
2022/08/08 05:24:15;;;;;;;3.38;2.28;;;23.40;99.90;;;;;;5092961;28;20020;-81
2022/08/08 05:26:45;;;;;;;2.42;2.22;;;23.50;99.90;;;;;;5074976;28;20131;-80
2022/08/08 05:29:11;;;;;;;2.30;2.20;;;23.50;99.90;;;;;;5074667;28;20062;-81
2022/08/08 05:31:37;;;;;;;2.17;1.90;;;23.60;99.90;;;;;;5074699;28;20417;-80
2022/08/08 05:34:35;;;;;;;2.42;2.25;;;23.60;99.90;;;;;;5092791;28;20032;-80
2022/08/08 05:37:04;;;;;;;2.20;2.05;;;23.70;99.90;;;;;;5089719;28;20573;-80
2022/08/08 05:39:30;;;;;;;2.40;2.08;;;23.70;99.90;;;;;;5074556;28;20052;-81
2022/08/08 05:41:58;;;;;;;2.20;2.10;;;23.70;99.90;;;;;;5074457;28;20433;-80
2022/08/08 05:44:28;;;;;;;2.38;2.22;;;23.80;99.90;;;;;;5092798;28;20016;-80
2022/08/08 05:46:56;;;;;;;2.72;2.30;;;23.80;99.90;;;;;;5092911;28;20096;-80
2022/08/08 05:49:22;;;;;;;2.45;2.28;;;23.80;99.90;;;;;;5092630;28;20027;-80
2022/08/08 05:51:48;;;;;;;2.45;2.35;;;23.80;99.90;;;;;;5092699;28;20388;-80
2022/08/08 05:54:15;;;;;;;2.38;2.17;;;23.90;99.90;;;;;;5092548;28;20042;-81
2022/08/08 05:56:42;;;;;;;3.17;2.33;;;23.90;99.90;;;;;;5074330;28;20035;-79
2022/08/08 05:59:22;;;;;;;2.78;2.58;;;23.90;99.90;;;;;;5074580;28;20396;-80
2022/08/08 06:01:53;;;;;;;2.30;2.20;;;23.90;99.90;;;;;;5092595;28;20432;-81
2022/08/08 06:04:23;;;;;;;2.65;2.53;;;23.80;99.90;;;;;;5074676;28;20504;-80
2022/08/08 06:06:54;;;;;;;2.55;2.35;;;23.90;99.90;;;;;;5074595;28;20066;-80
2022/08/08 06:09:28;;;;;;;3.45;2.67;;;23.90;99.90;;;;;;5092777;28;20081;-81
2022/08/08 06:12:02;;;;;;;2.00;1.90;;;23.90;99.90;;;;;;5092742;28;20024;-81
2022/08/08 06:14:29;;;;;;;2.33;2.13;;;23.90;99.90;;;;;;5074370;28;20474;-80
2022/08/08 06:17:03;;;;;;;6.03;1.95;;;23.90;99.90;;;;;;5092619;28;20039;-80
2022/08/08 06:19:29;;;;;;;2.22;2.10;;;23.90;99.90;;;;;;5092571;28;20081;-80
2022/08/08 06:21:55;;;;;;;2.45;2.35;;;23.90;99.90;;;;;;5074338;28;20428;-80
2022/08/08 06:24:21;;;;;;;2.40;2.30;;;24.00;99.90;;;;;;5096200;28;20028;-80
2022/08/08 06:26:58;;;;;;;2.63;1.70;;;24.10;99.90;;;;;;5078228;28;20012;-80
2022/08/08 06:29:33;;;;;;;6.32;2.50;;;24.20;99.90;;;;;;5096120;28;20055;-81
2022/08/08 06:32:03;;;;;;;2.55;2.35;;;24.20;99.90;;;;;;5098314;28;20035;-80
2022/08/08 06:34:36;;;;;;;2.45;2.00;;;24.30;99.90;;;;;;5113878;28;20028;-80
2022/08/08 06:37:05;;;;;;;2.78;2.58;;;24.40;99.90;;;;;;5099269;28;20057;-81
2022/08/08 06:39:32;;;;;;;1.90;1.80;;;24.40;99.90;;;;;;5098034;28;20051;-81
2022/08/08 06:42:01;;;;;;;1.90;1.80;;;24.50;99.90;;;;;;5098040;28;20036;-81
2022/08/08 06:44:28;;;;;;;2.30;2.20;;;24.60;99.90;;;;;;5116359;28;20020;-81
2022/08/08 06:46:55;;;;;;;2.58;2.20;;;24.60;99.90;;;;;;5098068;28;20481;-80
2022/08/08 06:49:21;;;;;;;2.20;2.10;;;24.70;99.90;;;;;;5098035;28;20374;-80
2022/08/08 06:51:47;;;;;;;2.38;2.17;;;24.80;99.90;;;;;;5116198;28;20110;-80
2022/08/08 06:54:13;;;;;;;3.05;2.20;;;24.80;99.90;;;;;;5097926;28;20059;-80
2022/08/08 06:56:39;;;;;;;5.45;2.15;;;24.90;99.90;;;;;;5097954;28;20497;-80
2022/08/08 06:59:06;;;;;;;2.58;2.47;;;24.90;99.90;;;;;;5115978;28;20552;-80
2022/08/08 07:01:43;;;;;;;3.50;2.60;;;25.00;99.90;;;;;;5116061;28;20023;-81
2022/08/08 07:04:23;;;;;;;2.67;2.58;;;25.00;99.90;;;;;;5116065;28;20643;-80
2022/08/08 07:06:58;;;;;;;2.60;2.50;;;25.20;99.90;;;;;;5097650;28;20055;-80
2022/08/08 07:09:37;;;;;;;2.70;2.60;;;25.20;99.90;;;;;;5116044;28;20030;-80
2022/08/08 07:12:07;;;;;;;4.60;3.20;;;25.20;99.90;;;;;;5097620;28;20020;-80
2022/08/08 07:14:51;;;;;;;2.95;2.75;;;25.30;99.90;;;;;;5097593;28;20049;-81
2022/08/08 07:17:23;;;;;;;3.22;2.95;;;25.30;99.90;;;;;;5096788;28;20024;-80
2022/08/08 07:20:07;;;;;;;5.35;3.20;;;25.30;99.90;;;;;;5095611;28;20058;-81
2022/08/08 07:22:58;;;;;;;3.10;2.90;;;25.40;99.90;;;;;;5084001;28;20028;-80
2022/08/08 07:25:24;;;;;;;2.92;2.72;;;25.50;99.90;;;;;;5092942;28;20035;-80
2022/08/08 07:27:58;;;;;;;2.53;2.33;;;25.50;99.90;;;;;;5069814;28;20112;-80
2022/08/08 07:30:24;;;;;;;2.88;2.67;;;25.50;99.90;;;;;;5055661;28;20021;-80
2022/08/08 07:32:50;;;;;;;2.45;2.35;;;25.60;99.90;;;;;;5054522;28;20406;-80
2022/08/08 07:35:16;;;;;;;2.75;2.65;;;25.60;99.90;;;;;;5054256;28;20020;-80
2022/08/08 07:37:42;;;;;;;3.03;2.83;;;25.60;99.90;;;;;;5072786;28;20038;-80
2022/08/08 07:40:10;;;;;;;2.72;2.53;;;25.60;99.90;;;;;;5072024;28;20942;-80
2022/08/08 07:42:37;;;;;;;2.58;2.40;;;25.70;99.90;;;;;;5054130;28;20031;-80
2022/08/08 07:45:03;;;;;;;2.92;2.42;;;25.70;99.90;;;;;;5072506;28;20557;-81
2022/08/08 07:47:29;;;;;;;2.15;2.05;;;25.80;99.90;;;;;;5067433;28;20074;-80
2022/08/08 07:49:55;;;;;;;2.90;2.70;;;25.70;99.90;;;;;;5092110;28;20401;-80
2022/08/08 07:52:21;;;;;;;2.65;2.50;;;25.80;99.90;;;;;;5066303;28;20036;-80
2022/08/08 07:55:03;;;;;;;2.70;2.50;;;25.80;99.90;;;;;;5061076;28;20555;-81
2022/08/08 07:57:53;;;;;;;2.23;2.13;;;25.80;99.90;;;;;;5055869;28;20733;-80
2022/08/08 08:00:20;;;;;;;2.60;2.40;;;25.90;99.90;;;;;;5077810;28;20259;-81
2022/08/08 08:03:12;;;;;;;2.65;2.45;;;25.90;99.90;;;;;;5063484;28;20414;-80
2022/08/08 08:05:41;;;;;;;2.53;2.40;;;26.00;99.90;;;;;;5092319;28;20020;-80
2022/08/08 08:08:19;;;;;;;2.45;2.35;;;25.90;99.90;;;;;;5074049;28;20024;-80
2022/08/08 08:10:48;;;;;;;2.83;2.47;;;26.00;99.90;;;;;;5066973;28;20730;-80
2022/08/08 08:13:27;;;;;;;2.60;2.50;;;25.90;99.90;;;;;;5072595;28;20027;-80
2022/08/08 08:16:12;;;;;;;2.70;2.50;;;26.00;99.90;;;;;;5091614;28;20022;-81
2022/08/08 08:18:55;;;;;;;2.60;2.40;;;26.10;99.90;;;;;;5067444;28;20100;-80
2022/08/08 08:21:22;;;;;;;2.47;2.38;;;26.10;99.90;;;;;;5053716;28;20028;-80
2022/08/08 08:23:48;;;;;;;3.15;2.95;;;26.10;99.90;;;;;;5065787;28;20024;-81
2022/08/08 08:26:14;;;;;;;3.78;2.47;;;26.20;99.90;;;;;;5065675;28;20393;-81
2022/08/08 08:28:40;;;;;;;2.70;2.50;;;26.20;99.90;;;;;;5083080;28;20016;-80
2022/08/08 08:31:06;;;;;;;2.58;2.38;;;26.30;99.90;;;;;;5063373;28;20020;-81
2022/08/08 08:33:32;;;;;;;3.80;2.80;;;26.20;99.90;;;;;;5064400;28;20020;-81
2022/08/08 08:36:00;;;;;;;2.63;2.53;;;26.30;99.90;;;;;;5062282;28;20024;-82
2022/08/08 08:38:26;;;;;;;2.72;2.50;;;26.30;99.90;;;;;;5085309;28;20040;-78
2022/08/08 08:40:52;;;;;;;2.55;2.22;;;26.30;99.90;;;;;;5073527;28;20731;-81
2022/08/08 08:43:19;;;;;;;3.10;2.90;;;26.30;99.90;;;;;;5057307;28;20024;-80
2022/08/08 08:45:47;;;;;;;3.40;3.20;;;26.40;99.90;;;;;;5086470;28;20095;-78
2022/08/08 08:48:16;;;;;;;2.70;2.50;;;26.40;99.90;;;;;;5072515;28;20039;-79
2022/08/08 08:50:44;;;;;;;2.63;2.50;;;26.50;99.90;;;;;;5087908;28;20019;-84
2022/08/08 08:53:11;;;;;;;2.78;2.58;;;26.40;99.90;;;;;;5069610;28;20428;-85
2022/08/08 08:55:38;;;;;;;2.55;2.35;;;26.50;99.90;;;;;;5071757;28;20042;-83
2022/08/08 08:58:16;;;;;;;3.22;2.55;;;26.50;99.90;;;;;;5091047;28;20081;-83
2022/08/08 09:00:42;;;;;;;3.53;3.28;;;26.60;99.90;;;;;;5072771;28;20028;-83
2022/08/08 09:03:09;;;;;;;2.67;2.47;;;26.60;99.90;;;;;;5091097;28;20051;-79
2022/08/08 09:05:39;;;;;;;2.70;2.60;;;26.60;99.90;;;;;;5072886;28;20028;-82
2022/08/08 09:08:07;;;;;;;2.55;2.45;;;26.70;99.90;;;;;;5090738;28;20028;-81
2022/08/08 09:10:37;;;;;;;2.42;2.33;;;26.70;99.90;;;;;;5089662;28;20028;-80
2022/08/08 09:13:05;;;;;;;2.75;2.05;;;26.70;99.90;;;;;;5087749;28;20032;-78
2022/08/08 09:15:31;;;;;;;2.80;2.60;;;26.70;99.90;;;;;;5072909;28;20077;-80
2022/08/08 09:17:58;;;;;;;3.03;2.83;;;26.70;99.90;;;;;;5055050;28;20021;-78
2022/08/08 09:20:26;;;;;;;2.80;2.60;;;26.70;99.90;;;;;;5072802;28;20579;-79
2022/08/08 09:22:56;;;;;;;2.92;2.72;;;26.70;99.90;;;;;;5054737;28;20025;-77
2022/08/08 09:25:22;;;;;;;2.83;2.63;;;26.70;99.90;;;;;;5072742;28;20021;-78
2022/08/08 09:27:48;;;;;;;3.20;2.88;;;26.80;98.70;;;;;;5054957;28;20021;-79
2022/08/08 09:30:15;;;;;;;4.25;2.80;;;26.80;98.10;;;;;;5072857;28;20021;-79
2022/08/08 09:32:42;;;;;;;2.92;2.35;;;26.80;98.90;;;;;;5054884;28;20020;-79
2022/08/08 09:35:11;;;;;;;3.22;3.03;;;26.90;99.70;;;;;;5088914;28;20130;-79
2022/08/08 09:37:47;;;;;;;2.90;2.80;;;26.90;98.20;;;;;;5074950;28;20642;-79
2022/08/08 09:40:18;;;;;;;6.15;3.05;;;26.90;98.30;;;;;;5092808;28;20117;-78
2022/08/08 09:42:47;;;;;;;2.60;2.50;;;27.00;98.90;;;;;;5073969;28;20520;-78
2022/08/08 09:45:19;;;;;;;2.97;2.65;;;27.00;99.30;;;;;;5090646;28;20101;-78
2022/08/08 09:47:48;;;;;;;4.10;2.70;;;27.00;98.40;;;;;;5090349;28;20602;-77
2022/08/08 09:50:18;;;;;;;3.20;3.00;;;27.10;98.30;;;;;;5072039;28;20008;-77
2022/08/08 09:52:52;;;;;;;4.03;2.92;;;27.10;98.10;;;;;;5072393;28;20121;-78
2022/08/08 09:55:20;;;;;;;3.70;2.92;;;27.10;97.90;;;;;;5072294;28;20024;-77
2022/08/08 09:57:48;;;;;;;2.88;2.78;;;27.20;98.30;;;;;;5075256;28;20032;-79
2022/08/08 10:00:17;;;;;;;3.55;2.80;;;27.20;97.90;;;;;;5093851;28;20428;-79
2022/08/08 10:02:45;;;;;;;4.13;3.30;;;27.20;98.30;;;;;;5094334;28;20381;-77
2022/08/08 10:05:20;;;;;;;3.00;2.80;;;27.30;98.80;;;;;;5094525;28;20020;-78
2022/08/08 10:07:52;;;;;;;3.33;3.05;;;27.40;98.60;;;;;;5094415;28;20101;-78
2022/08/08 10:10:29;;;;;;;;;;;27.40;97.20;;;;;;5094275;28;20051;-78
2022/08/08 10:12:56;;;;;;;2.92;2.67;;;27.40;97.30;;;;;;5093860;28;19904;-78
2022/08/08 10:15:24;;;;;;;3.10;2.90;;;27.30;97.20;;;;;;5075967;28;20016;-78
2022/08/08 10:17:52;;;;;;;2.83;2.65;;;27.40;97.30;;;;;;5094524;28;20107;-79
2022/08/08 10:20:18;;;;;;;3.00;2.78;;;27.40;97.40;;;;;;5075621;28;20024;-78
2022/08/08 10:23:14;;;;;;;3.50;3.22;;;27.40;97.30;;;;;;5093852;28;20059;-77
2022/08/08 10:25:43;;;;;;;3.00;2.80;;;27.40;97.90;;;;;;5059673;28;20039;-78
2022/08/08 10:28:15;;;;;;;3.10;2.90;;;27.50;97.50;;;;;;5080607;28;20505;-79
2022/08/08 10:30:54;;;;;;;2.80;2.70;;;27.60;97.60;;;;;;5093174;28;20017;-78
2022/08/08 10:33:31;;;;;;;3.40;3.10;;;27.60;97.90;;;;;;5092905;28;20059;-78
2022/08/08 10:36:01;;;;;;;3.03;2.85;;;27.70;98.30;;;;;;5093122;28;20024;-79
2022/08/08 10:38:29;;;;;;;3.28;3.08;;;27.80;98.00;;;;;;5093513;28;20771;-79
2022/08/08 10:40:57;;;;;;;2.80;2.60;;;27.90;98.20;;;;;;5074662;28;20393;-78
2022/08/08 10:43:24;;;;;;;2.60;2.50;;;27.90;97.80;;;;;;5093106;28;20595;-78
2022/08/08 10:45:49;;;;;;;3.03;2.83;;;27.90;97.20;;;;;;5093029;28;20016;-77
2022/08/08 10:48:15;;;;;;;3.38;2.78;;;28.00;97.60;;;;;;5072710;28;20436;-79
2022/08/08 10:50:41;;;;;;;3.05;2.85;;;28.20;97.70;;;;;;5091529;28;20024;-77
2022/08/08 10:53:09;;;;;;;3.20;3.00;;;28.30;97.10;;;;;;5091156;28;20472;-78
2022/08/08 10:55:41;;;;;;;3.45;3.25;;;28.30;97.40;;;;;;5090774;28;20032;-79
2022/08/08 10:58:08;;;;;;;;;;;28.30;97.50;;;;;;5091479;28;20055;-79
2022/08/08 11:00:34;;;;;;;2.95;2.85;;;28.30;97.60;;;;;;5092457;28;20582;-78
2022/08/08 11:03:14;;;;;;;2.88;2.78;;;28.40;97.00;;;;;;5092427;28;20024;-79
2022/08/08 11:05:50;;;;;;;3.40;3.10;;;28.50;97.30;;;;;;5092524;28;20024;-79
2022/08/08 11:08:21;;;;;;;2.97;2.85;;;28.60;97.00;;;;;;5091818;28;20020;-79
2022/08/08 11:10:47;;;;;;;3.20;2.95;;;28.60;96.20;;;;;;5074286;28;20028;-78
2022/08/08 11:13:19;;;;;;;4.88;3.20;;;28.60;96.00;;;;;;5092916;28;20035;-79
2022/08/08 11:15:47;;;;;;;3.72;3.50;;;28.60;96.10;;;;;;5092574;28;20393;-79
2022/08/08 11:18:13;;;;;;;3.10;2.90;;;28.60;97.50;;;;;;5074305;28;20193;-78
2022/08/08 11:20:40;;;;;;;3.15;3.00;;;28.50;96.00;;;;;;5093020;28;20106;-78
2022/08/08 11:23:08;;;;;;;2.70;2.53;;;28.60;97.50;;;;;;5074029;28;20427;-77
2022/08/08 11:25:34;;;;;;;3.47;3.28;;;28.70;97.10;;;;;;5092363;28;20093;-78
2022/08/08 11:28:03;;;;;;;6.47;3.10;;;28.90;97.50;;;;;;5074727;28;20187;-79
2022/08/08 11:30:31;;;;;;;2.70;2.60;;;29.00;97.20;;;;;;5058914;28;20079;-79
2022/08/08 11:33:01;;;;;;;3.30;3.10;;;29.00;97.00;;;;;;5077279;28;20059;-78
2022/08/08 11:35:27;;;;;;;2.90;2.80;;;29.10;96.50;;;;;;5082744;28;20614;-77
2022/08/08 11:37:54;;;;;;;2.60;2.50;;;29.00;96.00;;;;;;5071993;28;20482;-78
2022/08/08 11:40:20;;;;;;;3.13;2.80;;;29.20;96.70;;;;;;5071853;28;20093;-78
2022/08/08 11:42:46;;;;;;;3.05;2.75;;;29.20;95.30;;;;;;5072529;28;20028;-78
2022/08/08 11:45:12;;;;;;;3.20;3.00;;;29.30;95.70;;;;;;5071702;28;20020;-78
2022/08/08 11:47:39;;;;;;;3.83;3.63;;;29.30;96.50;;;;;;5072246;28;20104;-77
2022/08/08 11:50:11;;;;;;;3.80;3.60;;;29.30;96.00;;;;;;5072136;28;20048;-78
2022/08/08 11:52:37;;;;;;;;;;;29.30;96.10;;;;;;5072552;28;20028;-78
2022/08/08 11:55:19;;;;;;;3.30;3.10;;;29.50;96.20;;;;;;5071876;28;19910;-78
2022/08/08 11:57:45;;;;;;;3.38;3.17;;;29.70;95.50;;;;;;5058009;28;20106;-77
2022/08/08 12:00:17;;;;;;;3.25;3.03;;;29.60;94.50;;;;;;5074320;28;20020;-78
2022/08/08 12:02:54;;;;;;;3.00;2.90;;;29.60;95.90;;;;;;5074031;28;20024;-78
2022/08/08 12:05:40;;;;;;;3.10;2.90;;;29.60;95.60;;;;;;5091740;28;20020;-78
2022/08/08 12:08:06;;;;;;;3.15;2.95;;;29.60;94.60;;;;;;5074232;28;20028;-77
2022/08/08 12:10:32;;;;;;;3.80;3.60;;;29.50;94.10;;;;;;5091572;28;20020;-78
2022/08/08 12:13:05;;;;;;;3.42;3.30;;;29.60;94.50;;;;;;5091904;28;20024;-78
2022/08/08 12:15:38;;;;;;;11.90;3.42;;;29.50;94.60;;;;;;5073939;28;20089;-78
2022/08/08 12:18:17;;;;;;;3.53;3.33;;;29.60;94.70;;;;;;5091872;28;20024;-78
2022/08/08 12:20:43;;;;;;;3.40;3.20;;;29.50;95.30;;;;;;5071666;28;20024;-78
2022/08/08 12:23:09;;;;;;;3.58;3.30;;;29.60;95.40;;;;;;5072453;28;20031;-78
2022/08/08 12:25:35;;;;;;;3.70;3.40;;;29.70;95.40;;;;;;5091821;28;20024;-77
2022/08/08 12:28:15;;;;;;;3.55;3.25;;;29.80;95.10;;;;;;5091472;28;20016;-78
2022/08/08 12:30:42;;;;;;;3.85;3.10;;;29.80;94.40;;;;;;5073412;28;20027;-77
2022/08/08 12:33:26;;;;;;;3.50;3.30;;;30.00;94.50;;;;;;5091206;28;20436;-77
2022/08/08 12:35:53;;;;;;;3.25;3.05;;;30.10;93.60;;;;;;5094044;28;20103;-77
2022/08/08 12:38:19;;;;;;;3.67;3.38;;;30.30;93.80;;;;;;5092683;28;20051;-79
2022/08/08 12:40:53;;;;;;;3.70;3.50;;;30.30;93.30;;;;;;5088743;28;20036;-79
2022/08/08 12:43:30;;;;;;;4.13;3.40;;;30.20;92.90;;;;;;5093388;28;20032;-79
2022/08/08 12:45:55;;;;;;;5.03;4.22;;;30.20;92.80;;;;;;5075384;28;20016;-79
2022/08/08 12:48:24;;;;;;;5.03;3.67;;;30.20;93.10;;;;;;5093577;28;20527;-79
2022/08/08 12:50:56;;;;;;;3.50;3.30;;;30.40;93.70;;;;;;5075499;28;20421;-79
2022/08/08 12:53:29;;;;;;;3.67;3.47;;;30.30;92.70;;;;;;5093303;28;20078;-79
2022/08/08 12:56:02;;;;;;;3.92;3.63;;;30.30;92.80;;;;;;5093187;28;20028;-78
2022/08/08 12:58:42;;;;;;;3.65;3.45;;;30.30;93.70;;;;;;5103487;28;20523;-78
2022/08/08 13:01:09;;;;;;;3.50;3.30;;;30.50;94.10;;;;;;5113674;28;20115;-78
2022/08/08 13:03:35;;;;;;;3.78;3.47;;;30.50;94.20;;;;;;5090911;28;20024;-79
2022/08/08 13:06:16;;;;;;;5.22;3.33;;;30.50;92.40;;;;;;5093379;28;20020;-78
2022/08/08 13:08:48;;;;;;;3.65;3.28;;;30.50;92.00;;;;;;5093288;28;20099;-77
2022/08/08 13:11:23;;;;;;;3.50;3.30;;;30.60;92.50;;;;;;5071106;28;20028;-78
2022/08/08 13:14:14;;;;;;;6.90;4.15;;;30.70;92.80;;;;;;5088261;28;20546;-78
2022/08/08 13:16:40;;;;;;;3.35;3.15;;;30.70;92.10;;;;;;5090677;28;20052;-78
2022/08/08 13:19:09;;;;;;;3.75;3.55;;;30.90;91.80;;;;;;5090613;28;20103;-78
2022/08/08 13:21:42;;;;;;;4.15;3.85;;;31.10;92.40;;;;;;5090850;28;20085;-78
2022/08/08 13:24:08;;;;;;;4.95;3.33;;;31.20;91.90;;;;;;5090680;28;20047;-78
2022/08/08 13:26:34;;;;;;;3.97;3.63;;;31.40;91.60;;;;;;5090188;28;20488;-78